Ellsinore, Missouri
Current Conditions -  °F | °C
As of 4:55 PM on Tuesday 21 Oct 2014 (Local Time) from K4M9 Reporting Station
Clear Clear  
Wind Chill: 73°   Ceiling: Unl
Heat Index: 73°   Visibility: 8mi
Dew Point: 48°   Wind: 6mph
Humidity: 41%   Direction: 300°WNW
Pressure: 30.06"   Gusts: NA
Location:  36.93°N, 90.75°W
Report Text: K4M9 212155Z AUTO 30005KT 8SM CLR 23/09 A3006 RMK AO2
Loading
Personal Weather Stations






























Interactive Weather Map
Tropical Storm Tracking
New forecast layout! Learn more

10-Day Weather Forecast

Advertisements
Track Severe Weather on mobile